Decoded Metar for OINR (RAMSAR in IRAN) (IATA:RZR) | Meteo·Mobile Aviation Weather
aviador You're here:

OINR Decoded Metar

RAMSAR in IRAN
Report Time2018-09-22 09:00:00
UTC Time2018-09-22 09:27:54
Flight Rules vfr VFR
Wind040° at 06 kt
W.Decomp.*RWY 31: 0.4 kt HW 6.0 kt RCW
W.Rank040° ranks 23
Current wind is above 040° avg. (4.9)
Visibility9999 m
Phenomena:N/A
Clouds:Few CB 023 Hf
Scattered 030 Hf
Expected CloudBase > 2,400 ft AGL from Temp-Dew spread
CeilingNone
Temp26°C (ISA +11)
Dew Point20°C (70% RH)
QNH1017 hPa
Density Alt1,365 ft
Elevation-66 ft
Report Wrong Elevation
Raw Report
METAR OINR 220900Z 04006KT 9999 FEW023CB SCT030 26/20 Q1017=

Extra information for OINR:More info

Metar Taf Metar & Taf Last 4 Metars F.Rules Stats Wind Profile Meteogram Temp Stats Airport Information Weather charts Add Link Nearby VenuesMetar ALERT Operation Metar Decoded Social comments